createdAt,value
2022-11-02T00:01:23.720Z,99.90
2022-11-02T00:03:56.580Z,99.90
2022-11-02T00:06:29.726Z,99.90
2022-11-02T00:09:06.170Z,99.90
2022-11-02T00:11:37.513Z,99.90
2022-11-02T00:14:07.982Z,99.90
2022-11-02T00:16:42.756Z,99.90
2022-11-02T00:19:18.386Z,99.90
2022-11-02T00:21:48.881Z,99.90
2022-11-02T00:24:19.000Z,99.90
2022-11-02T00:26:49.101Z,99.90
2022-11-02T00:29:23.559Z,99.90
2022-11-02T00:32:02.882Z,99.90
2022-11-02T00:34:39.259Z,99.90
2022-11-02T00:37:09.314Z,99.90
2022-11-02T00:39:39.437Z,99.90
2022-11-02T00:42:09.818Z,99.90
2022-11-02T00:44:45.592Z,99.90
2022-11-02T00:47:21.606Z,99.90
2022-11-02T00:49:59.434Z,99.90
2022-11-02T00:52:29.532Z,99.90
2022-11-02T00:55:02.730Z,99.90
2022-11-02T00:57:35.855Z,99.90
2022-11-02T01:00:06.225Z,99.90
2022-11-02T01:02:36.872Z,99.90
2022-11-02T01:05:14.162Z,99.90
2022-11-02T01:07:51.846Z,99.90
2022-11-02T01:10:22.175Z,99.90
2022-11-02T01:12:53.445Z,99.90
2022-11-02T01:15:23.745Z,99.90
2022-11-02T01:17:56.949Z,99.90
2022-11-02T01:20:29.606Z,99.90
2022-11-02T01:23:01.221Z,99.90
2022-11-02T01:25:34.121Z,99.90
2022-11-02T01:28:07.644Z,99.90
2022-11-02T01:30:37.796Z,99.90
2022-11-02T01:33:08.948Z,99.90
2022-11-02T01:35:42.954Z,99.90
2022-11-02T01:38:13.378Z,99.90
2022-11-02T01:40:43.921Z,99.90
2022-11-02T01:43:33.761Z,99.90
2022-11-02T01:46:16.241Z,99.90
2022-11-02T01:48:50.674Z,99.90
2022-11-02T01:51:29.895Z,99.90
2022-11-02T01:54:08.790Z,99.90
2022-11-02T01:56:43.909Z,99.90
2022-11-02T01:59:19.375Z,99.90
2022-11-02T02:01:49.754Z,99.90
2022-11-02T02:04:20.427Z,99.90
2022-11-02T02:06:55.684Z,99.90
2022-11-02T02:09:28.195Z,99.90
2022-11-02T02:12:00.801Z,99.90
2022-11-02T02:14:31.096Z,99.90
2022-11-02T02:17:29.047Z,99.90
2022-11-02T02:20:06.342Z,99.90
2022-11-02T02:23:31.173Z,99.90
2022-11-02T02:26:50.462Z,99.90
2022-11-02T02:29:27.290Z,99.90
2022-11-02T02:32:05.666Z,99.90
2022-11-02T02:34:45.964Z,99.90
2022-11-02T02:37:24.674Z,99.90
2022-11-02T02:40:07.624Z,99.90
2022-11-02T02:42:43.951Z,99.90
2022-11-02T02:45:27.348Z,99.90
2022-11-02T02:48:08.733Z,99.90
2022-11-02T02:50:51.517Z,99.90
2022-11-02T02:53:28.288Z,99.90
2022-11-02T02:56:03.326Z,99.90
2022-11-02T02:58:41.650Z,99.90
2022-11-02T03:01:17.261Z,99.90
2022-11-02T03:03:48.276Z,99.90
2022-11-02T03:06:30.862Z,99.90
2022-11-02T03:09:12.694Z,99.90
2022-11-02T03:11:57.352Z,99.90
2022-11-02T03:14:46.470Z,99.90
2022-11-02T03:17:33.922Z,99.90
2022-11-02T03:20:24.008Z,99.90
2022-11-02T03:23:09.157Z,99.90
2022-11-02T03:25:52.586Z,99.90
2022-11-02T03:28:56.668Z,99.90
2022-11-02T03:31:40.500Z,99.90
2022-11-02T03:34:27.333Z,99.90
2022-11-02T03:37:11.344Z,99.90
2022-11-02T03:39:47.081Z,99.90
2022-11-02T03:42:26.213Z,99.90
2022-11-02T03:45:04.805Z,99.90
2022-11-02T03:47:41.794Z,99.90
2022-11-02T03:50:17.935Z,99.90
2022-11-02T03:52:51.034Z,99.90
2022-11-02T03:55:31.375Z,99.90
2022-11-02T03:58:07.451Z,99.90
2022-11-02T04:00:39.526Z,99.90
2022-11-02T04:03:09.805Z,99.90
2022-11-02T04:05:52.603Z,99.90
2022-11-02T04:08:32.953Z,99.90
2022-11-02T04:11:15.507Z,99.90
2022-11-02T04:13:58.045Z,99.90
2022-11-02T04:16:28.509Z,99.90
2022-11-02T04:19:11.339Z,99.90
2022-11-02T04:22:03.322Z,99.90
2022-11-02T04:24:57.936Z,99.90
2022-11-02T04:27:28.476Z,99.90
2022-11-02T04:29:58.610Z,99.90
2022-11-02T04:32:41.098Z,99.90
2022-11-02T04:35:12.735Z,99.90
2022-11-02T04:38:00.270Z,99.90
2022-11-02T04:40:30.808Z,99.90
2022-11-02T04:43:00.939Z,99.90
2022-11-02T04:45:31.196Z,99.90
2022-11-02T04:48:04.181Z,99.90
2022-11-02T04:50:35.169Z,99.90
2022-11-02T04:53:09.848Z,99.90
2022-11-02T04:55:42.951Z,99.90
2022-11-02T04:58:13.025Z,99.90
2022-11-02T05:00:43.144Z,99.90
2022-11-02T05:03:13.264Z,99.90
2022-11-02T05:05:43.658Z,99.90
2022-11-02T05:08:19.446Z,99.90
2022-11-02T05:10:49.652Z,99.90
2022-11-02T05:13:21.998Z,99.90
2022-11-02T05:15:52.121Z,99.90
2022-11-02T05:21:13.997Z,99.90
2022-11-02T05:23:48.925Z,99.90
2022-11-02T05:26:21.809Z,99.90
2022-11-02T05:28:52.742Z,99.90
2022-11-02T05:31:22.804Z,99.90
2022-11-02T05:33:53.074Z,99.90
2022-11-02T05:36:23.194Z,99.90
2022-11-02T05:38:58.913Z,99.90
2022-11-02T05:41:29.044Z,99.90
2022-11-02T05:43:59.223Z,99.90
2022-11-02T05:46:29.560Z,99.90
2022-11-02T05:48:59.682Z,99.90
2022-11-02T05:51:29.881Z,99.90
2022-11-02T05:54:05.532Z,99.90
2022-11-02T05:56:35.598Z,99.90
2022-11-02T05:59:05.809Z,99.90
2022-11-02T06:01:39.189Z,99.90
2022-11-02T06:04:09.655Z,99.90
2022-11-02T06:06:39.774Z,99.90
2022-11-02T06:09:15.570Z,99.90
2022-11-02T06:11:48.375Z,99.90
2022-11-02T06:14:18.496Z,99.90
2022-11-02T06:16:48.545Z,99.90
2022-11-02T06:19:21.260Z,99.90
2022-11-02T06:21:51.403Z,99.90
2022-11-02T06:24:26.459Z,99.90
2022-11-02T06:26:58.147Z,99.90
2022-11-02T06:29:28.278Z,99.90
2022-11-02T06:31:58.366Z,99.90
2022-11-02T06:34:28.448Z,99.90
2022-11-02T06:36:58.556Z,99.90
2022-11-02T06:39:31.284Z,99.90
2022-11-02T06:42:04.083Z,99.90
2022-11-02T06:44:36.504Z,99.90
2022-11-02T06:47:09.817Z,99.90
2022-11-02T06:49:42.717Z,99.90
2022-11-02T06:52:12.948Z,99.90
2022-11-02T06:54:45.638Z,99.90
2022-11-02T06:57:15.697Z,99.90
2022-11-02T06:59:49.989Z,99.90
2022-11-02T07:02:23.829Z,99.90
2022-11-02T07:04:53.914Z,99.90
2022-11-02T07:07:23.996Z,99.90
2022-11-02T07:09:56.701Z,99.90
2022-11-02T07:12:26.891Z,99.90
2022-11-02T07:14:59.961Z,99.90
2022-11-02T07:17:33.063Z,99.90
2022-11-02T07:20:05.234Z,99.90
2022-11-02T07:22:35.617Z,99.90
2022-11-02T07:25:13.984Z,99.90
2022-11-02T07:27:48.789Z,99.90
2022-11-02T07:30:19.635Z,99.90
2022-11-02T07:32:52.819Z,99.90
2022-11-02T07:35:25.871Z,99.90
2022-11-02T07:38:03.218Z,96.20
2022-11-02T07:40:39.670Z,84.00
2022-11-02T07:43:10.752Z,59.70
2022-11-02T07:45:40.970Z,1.00
2022-11-02T07:48:11.747Z,1.00
2022-11-02T07:50:42.134Z,1.00
2022-11-02T07:53:12.945Z,99.90
2022-11-02T07:55:48.136Z,1.00
2022-11-02T07:58:21.034Z,99.90
2022-11-02T08:00:53.795Z,68.80
2022-11-02T08:03:26.259Z,1.00
2022-11-02T08:05:56.809Z,1.00
2022-11-02T08:08:27.868Z,99.90
2022-11-02T08:11:10.826Z,99.90
2022-11-02T08:13:41.508Z,99.90
2022-11-02T08:16:17.463Z,74.10
2022-11-02T08:18:47.900Z,1.00
2022-11-02T08:21:25.824Z,1.00
2022-11-02T08:24:01.627Z,1.00
2022-11-02T08:26:34.413Z,99.90
2022-11-02T08:29:07.730Z,1.00
2022-11-02T08:31:38.153Z,1.00
2022-11-02T08:34:14.483Z,1.00
2022-11-02T08:36:44.777Z,99.90
2022-11-02T08:39:18.963Z,1.00
2022-11-02T08:41:55.124Z,1.00
2022-11-02T08:44:31.079Z,99.90
2022-11-02T08:47:03.114Z,8.80
2022-11-02T08:49:35.715Z,1.00
2022-11-02T08:52:08.950Z,1.00
2022-11-02T08:54:39.323Z,1.00
2022-11-02T08:57:21.012Z,1.00
2022-11-02T08:59:51.247Z,1.00
2022-11-02T09:02:21.483Z,1.00
2022-11-02T09:04:54.206Z,1.00
2022-11-02T09:07:24.621Z,1.00
2022-11-02T09:09:54.909Z,1.00
2022-11-02T09:12:27.673Z,1.00
2022-11-02T09:15:00.787Z,1.00
2022-11-02T09:17:32.013Z,1.00
2022-11-02T09:20:02.255Z,1.00
2022-11-02T09:22:33.152Z,1.00
2022-11-02T09:25:05.754Z,1.00
2022-11-02T09:27:40.930Z,1.00
2022-11-02T09:30:16.203Z,1.00
2022-11-02T09:32:46.555Z,1.00
2022-11-02T09:35:17.009Z,99.90
2022-11-02T09:37:50.124Z,99.90
2022-11-02T09:40:25.710Z,96.40
2022-11-02T09:43:28.227Z,1.00
2022-11-02T09:46:10.816Z,65.40
2022-11-02T09:48:48.457Z,1.00
2022-11-02T09:51:26.294Z,25.20
2022-11-02T09:54:13.188Z,1.00
2022-11-02T09:56:48.492Z,1.00
2022-11-02T10:02:14.307Z,1.00
2022-11-02T10:05:14.597Z,1.00
2022-11-02T10:08:23.893Z,76.30
2022-11-02T10:11:15.260Z,1.00
2022-11-02T10:13:56.675Z,55.30
2022-11-02T10:16:39.530Z,99.90
2022-11-02T10:19:18.260Z,99.90
2022-11-02T10:21:52.549Z,99.90
2022-11-02T10:24:32.978Z,99.90
2022-11-02T10:27:11.552Z,99.90
2022-11-02T10:29:55.535Z,99.90
2022-11-02T10:32:28.822Z,99.90
2022-11-02T10:35:17.558Z,1.00
2022-11-02T10:38:15.429Z,1.00
2022-11-02T10:41:15.350Z,1.00
2022-11-02T10:44:05.828Z,99.90
2022-11-02T10:47:01.059Z,1.00
2022-11-02T10:50:12.527Z,1.00
2022-11-02T10:52:46.922Z,23.70
2022-11-02T10:55:32.172Z,99.90
2022-11-02T10:58:07.762Z,99.90
2022-11-02T11:00:40.731Z,1.00
2022-11-02T11:03:14.453Z,1.00
2022-11-02T11:06:02.928Z,1.00
2022-11-02T11:08:40.930Z,99.90
2022-11-02T11:11:20.957Z,1.00
2022-11-02T11:19:54.319Z,1.00
2022-11-02T11:22:35.484Z,1.00
2022-11-02T11:25:33.256Z,99.90
2022-11-02T11:28:11.699Z,1.00
2022-11-02T11:33:35.982Z,30.80
2022-11-02T11:36:12.102Z,99.90
2022-11-02T11:38:53.574Z,99.90
2022-11-02T11:41:26.795Z,99.90
2022-11-02T11:44:05.292Z,99.90
2022-11-02T11:46:51.999Z,1.00
2022-11-02T11:52:29.939Z,1.00
2022-11-02T11:55:25.099Z,1.00
2022-11-02T11:58:09.863Z,99.90
2022-11-02T12:00:40.344Z,1.00
2022-11-02T12:03:12.811Z,99.90
2022-11-02T12:06:07.207Z,1.00
2022-11-02T12:09:03.931Z,1.00
2022-11-02T12:11:59.491Z,1.00
2022-11-02T12:14:54.293Z,1.00
2022-11-02T12:18:04.328Z,99.90
2022-11-02T12:20:58.380Z,1.00
2022-11-02T12:24:07.545Z,1.00
2022-11-02T12:27:09.833Z,99.90
2022-11-02T12:30:06.137Z,1.00
2022-11-02T12:32:52.937Z,99.90
2022-11-02T12:35:54.071Z,1.00
2022-11-02T12:39:04.376Z,1.00
2022-11-02T12:42:06.521Z,1.00
2022-11-02T12:44:56.765Z,1.00
2022-11-02T12:47:45.051Z,1.00
2022-11-02T12:50:38.633Z,99.90
2022-11-02T12:53:39.451Z,1.00
2022-11-02T12:56:16.602Z,99.90
2022-11-02T12:58:52.290Z,99.90
2022-11-02T13:01:33.983Z,99.90
2022-11-02T13:04:16.393Z,1.00
2022-11-02T13:06:54.071Z,1.00
2022-11-02T13:09:31.269Z,1.00
2022-11-02T13:12:12.645Z,1.00
2022-11-02T13:14:52.764Z,99.90
2022-11-02T13:17:36.145Z,1.00
2022-11-02T13:20:20.815Z,1.00
2022-11-02T13:23:03.323Z,1.00
2022-11-02T13:25:39.981Z,99.90
2022-11-02T13:28:21.045Z,90.60
2022-11-02T13:30:57.658Z,1.00
2022-11-02T13:33:37.552Z,99.90
2022-11-02T13:36:09.553Z,1.00
2022-11-02T13:38:47.446Z,99.90
2022-11-02T13:41:45.506Z,99.90
2022-11-02T13:45:04.343Z,98.80
2022-11-02T13:48:13.136Z,1.00
2022-11-02T13:50:51.220Z,1.00
2022-11-02T13:53:34.138Z,99.90
2022-11-02T13:56:12.881Z,1.00
2022-11-02T13:58:51.854Z,1.00
2022-11-02T14:01:27.257Z,1.00
2022-11-02T14:04:09.826Z,1.00
2022-11-02T14:06:53.581Z,99.90
2022-11-02T14:09:42.336Z,1.00
2022-11-02T14:12:47.479Z,99.90
2022-11-02T14:15:57.799Z,1.00
2022-11-02T14:18:35.332Z,1.00
2022-11-02T14:21:47.770Z,1.00
2022-11-02T14:25:03.000Z,1.00
2022-11-02T14:27:34.088Z,1.00
2022-11-02T14:30:04.416Z,99.90
2022-11-02T14:33:08.653Z,99.90
2022-11-02T14:35:50.222Z,99.90
2022-11-02T14:42:38.766Z,99.90
2022-11-02T14:45:28.225Z,38.90
2022-11-02T14:48:09.176Z,1.00
2022-11-02T14:50:39.483Z,1.00
2022-11-02T14:53:25.669Z,1.00
2022-11-02T14:55:59.890Z,1.00
2022-11-02T14:58:40.776Z,99.90
2022-11-02T15:01:18.658Z,1.00
2022-11-02T15:03:50.983Z,99.90
2022-11-02T15:06:27.251Z,99.90
2022-11-02T15:09:00.867Z,1.00
2022-11-02T15:12:03.610Z,99.90
2022-11-02T15:14:59.262Z,99.90
2022-11-02T15:18:28.890Z,1.00
2022-11-02T15:21:40.310Z,1.00
2022-11-02T15:24:22.687Z,97.60
2022-11-02T15:26:59.047Z,99.90
2022-11-02T15:29:47.033Z,99.90
2022-11-02T15:32:25.056Z,99.90
2022-11-02T15:35:00.228Z,1.00
2022-11-02T15:37:50.389Z,1.00
2022-11-02T15:40:33.254Z,1.00
2022-11-02T15:43:24.138Z,1.00
2022-11-02T15:46:11.993Z,1.00
2022-11-02T15:48:56.246Z,1.00
2022-11-02T15:51:39.708Z,1.00
2022-11-02T15:54:48.857Z,1.00
2022-11-02T15:57:34.083Z,1.00
2022-11-02T16:00:30.079Z,1.00
2022-11-02T16:03:08.667Z,1.00
2022-11-02T16:26:19.761Z,1.00
2022-11-02T16:29:01.304Z,1.00
2022-11-02T16:31:33.555Z,1.00
2022-11-02T16:34:06.557Z,1.00
2022-11-02T16:36:40.601Z,1.00
2022-11-02T16:39:22.615Z,1.00
2022-11-02T16:41:58.477Z,1.00
2022-11-02T16:44:32.073Z,1.00
2022-11-02T16:47:30.643Z,1.00
2022-11-02T16:50:02.200Z,1.00
2022-11-02T16:52:36.561Z,1.00
2022-11-02T16:55:39.578Z,1.00
2022-11-02T16:58:23.145Z,1.00
2022-11-02T17:01:00.742Z,1.00
2022-11-02T17:03:35.496Z,1.00
2022-11-02T17:06:09.672Z,1.00
2022-11-02T17:08:46.484Z,1.00
2022-11-02T17:11:19.615Z,1.00
2022-11-02T17:14:00.060Z,1.00
2022-11-02T17:16:38.667Z,1.00
2022-11-02T17:19:13.125Z,1.00
2022-11-02T17:21:47.306Z,1.00
2022-11-02T17:24:36.561Z,1.00
2022-11-02T17:27:28.848Z,1.00
2022-11-02T17:30:02.035Z,1.00
2022-11-02T17:32:32.657Z,1.00
2022-11-02T17:35:07.334Z,1.00
2022-11-02T17:37:43.769Z,1.00
2022-11-02T17:40:16.221Z,1.00
2022-11-02T17:43:07.621Z,1.00
2022-11-02T17:45:41.836Z,1.00
2022-11-02T17:48:20.571Z,1.00
2022-11-02T17:50:55.082Z,28.60
2022-11-02T17:53:26.857Z,1.00
2022-11-02T17:55:59.585Z,1.00
2022-11-02T17:58:30.254Z,1.00
2022-11-02T18:01:06.679Z,1.00
2022-11-02T18:03:37.044Z,1.00
2022-11-02T18:06:07.989Z,1.00
2022-11-02T18:08:53.745Z,1.10
2022-11-02T18:11:26.458Z,5.40
2022-11-02T18:14:06.551Z,7.10
2022-11-02T18:16:39.284Z,8.50
2022-11-02T18:19:12.191Z,14.90
2022-11-02T18:21:44.385Z,19.00
2022-11-02T18:24:14.443Z,24.70
2022-11-02T18:26:47.284Z,33.40
2022-11-02T18:29:17.428Z,30.90
2022-11-02T18:31:50.501Z,32.60
2022-11-02T18:34:21.713Z,27.80
2022-11-02T18:36:51.859Z,31.90
2022-11-02T18:39:25.145Z,34.50
2022-11-02T18:42:01.122Z,41.40
2022-11-02T18:44:31.218Z,46.90
2022-11-02T18:47:11.396Z,47.20
2022-11-02T18:49:41.551Z,41.00
2022-11-02T18:52:18.346Z,48.80
2022-11-02T18:55:03.218Z,54.40
2022-11-02T18:57:36.554Z,67.50
2022-11-02T19:00:08.328Z,66.90
2022-11-02T19:02:41.642Z,74.70
2022-11-02T19:05:32.562Z,83.20
2022-11-02T19:08:16.043Z,79.70
2022-11-02T19:10:49.338Z,78.00
2022-11-02T19:13:21.817Z,62.10
2022-11-02T19:15:51.943Z,59.40
2022-11-02T19:18:30.045Z,71.40
2022-11-02T19:21:01.115Z,78.40
2022-11-02T19:23:34.341Z,91.10
2022-11-02T19:26:04.415Z,88.20
2022-11-02T19:28:34.541Z,95.40
2022-11-02T19:31:08.269Z,93.20
2022-11-02T19:33:41.130Z,86.00
2022-11-02T19:36:11.938Z,83.40
2022-11-02T19:38:42.728Z,81.80
2022-11-02T19:41:16.659Z,74.40
2022-11-02T19:43:48.410Z,68.90
2022-11-02T19:46:24.559Z,87.50
2022-11-02T19:49:12.431Z,63.20
2022-11-02T19:51:43.067Z,64.00
2022-11-02T19:54:13.239Z,66.10
2022-11-02T19:56:43.386Z,76.00
2022-11-02T19:59:13.466Z,81.30
2022-11-02T20:01:45.632Z,90.60
2022-11-02T20:04:18.420Z,93.60
2022-11-02T20:06:48.579Z,94.20
2022-11-02T20:09:25.345Z,94.30
2022-11-02T20:11:55.443Z,92.10
2022-11-02T20:14:34.208Z,90.60
2022-11-02T20:17:29.534Z,97.40
2022-11-02T20:19:57.037Z,96.50
2022-11-02T20:22:27.140Z,99.20
2022-11-02T20:24:57.337Z,99.90
2022-11-02T20:27:30.602Z,98.70
2022-11-02T20:30:03.065Z,98.40
2022-11-02T20:32:38.402Z,99.90
2022-11-02T20:35:13.793Z,99.90
2022-11-02T20:37:51.494Z,99.90
2022-11-02T20:40:24.802Z,99.90
2022-11-02T20:42:58.536Z,99.90
2022-11-02T20:45:31.740Z,99.90
2022-11-02T20:48:05.631Z,99.90
2022-11-02T20:50:41.843Z,99.90
2022-11-02T20:53:17.281Z,99.90
2022-11-02T20:55:47.462Z,99.90
2022-11-02T20:58:17.657Z,99.90
2022-11-02T21:00:50.662Z,99.90
2022-11-02T21:03:21.739Z,99.90
2022-11-02T21:05:54.472Z,99.90
2022-11-02T21:08:24.761Z,99.90
2022-11-02T21:11:02.053Z,99.90
2022-11-02T21:13:47.709Z,99.90
2022-11-02T21:16:18.593Z,99.90
2022-11-02T21:18:48.872Z,99.90
2022-11-02T21:21:23.692Z,99.90
2022-11-02T21:23:56.308Z,99.90
2022-11-02T21:26:26.404Z,99.90
2022-11-02T21:28:56.560Z,99.90
2022-11-02T21:31:26.657Z,99.90
2022-11-02T21:33:59.538Z,99.90
2022-11-02T21:36:32.371Z,99.90
2022-11-02T21:39:02.457Z,99.90
2022-11-02T21:41:36.786Z,99.90
2022-11-02T21:44:11.672Z,99.90
2022-11-02T21:46:43.981Z,99.90
2022-11-02T21:49:14.214Z,99.90
2022-11-02T21:51:47.018Z,99.90
2022-11-02T21:54:17.183Z,99.90
2022-11-02T21:56:48.427Z,99.90
2022-11-02T21:59:18.564Z,99.90
2022-11-02T22:01:47.945Z,99.90
2022-11-02T22:04:21.665Z,99.90
2022-11-02T22:06:57.762Z,99.90
2022-11-02T22:09:29.517Z,99.90
2022-11-02T22:12:15.260Z,99.90
2022-11-02T22:14:46.805Z,99.90
2022-11-02T22:17:43.198Z,99.90
2022-11-02T22:20:08.253Z,99.90
2022-11-02T22:22:40.940Z,99.90
2022-11-02T22:25:12.111Z,99.90
2022-11-02T22:27:44.889Z,99.90
2022-11-02T22:30:16.807Z,99.90
2022-11-02T22:32:49.885Z,99.90
2022-11-02T22:35:20.912Z,99.90
2022-11-02T22:38:11.212Z,99.90
2022-11-02T22:40:44.476Z,99.90
2022-11-02T22:43:14.579Z,99.90
2022-11-02T22:45:44.697Z,99.90
2022-11-02T22:48:14.776Z,99.90
2022-11-02T22:50:47.330Z,99.90
2022-11-02T22:53:19.986Z,99.90
2022-11-02T22:56:01.177Z,99.90
2022-11-02T22:58:34.064Z,99.90
2022-11-02T23:01:07.278Z,99.90
2022-11-02T23:03:39.129Z,99.90
2022-11-02T23:06:10.805Z,99.90
2022-11-02T23:08:48.425Z,99.90
2022-11-02T23:11:24.140Z,99.90
2022-11-02T23:14:05.463Z,99.90
2022-11-02T23:16:38.490Z,99.90
2022-11-02T23:19:28.301Z,99.90
2022-11-02T23:22:16.875Z,99.90
2022-11-02T23:25:04.450Z,99.90
2022-11-02T23:27:56.561Z,99.90
2022-11-02T23:30:48.305Z,99.90
2022-11-02T23:33:19.534Z,99.90
2022-11-02T23:36:08.051Z,99.90
2022-11-02T23:38:50.438Z,99.90
2022-11-02T23:41:25.352Z,99.90
2022-11-02T23:44:21.541Z,99.90
2022-11-02T23:46:54.844Z,99.90
2022-11-02T23:49:24.986Z,99.90
2022-11-02T23:52:19.267Z,99.90
2022-11-02T23:55:04.616Z,99.90
2022-11-02T23:57:42.966Z,99.90
